Aaronsburg, Pennsylvania
Current Conditions -  °F | °C
As of 8:53 PM on Monday 24 Nov 2014 (Local Time) from KUNV Reporting Station
Scattered Clouds Scattered Clouds  
Wind Chill: 57°   Ceiling: Unl
Heat Index: 57°   Visibility: 10mi
Dew Point: 41°   Wind: 12mph
Humidity: 55%   Direction: 240°WSW
Pressure: 29.68"   Gusts: NA
Location:  40.9°N, 77.45°W
Report Text: KUNV 250153Z 24010KT 10SM SCT075 14/05 A2968
Loading
Personal Weather Stations






























Interactive Weather Map New forecast layout! Learn more

10-Day Weather Forecast

Advertisements
Track Severe Weather on mobile